sensor_id;sensor_type;location;lat;lon;timestamp;temperature;humidity
67899;DHT22;54699;51.796;10.956;2023-03-01T00:01:12;16.80;45.20
67899;DHT22;54699;51.796;10.956;2023-03-01T00:03:41;16.80;45.20
67899;DHT22;54699;51.796;10.956;2023-03-01T00:06:10;16.70;45.30
67899;DHT22;54699;51.796;10.956;2023-03-01T00:08:37;16.70;45.30
67899;DHT22;54699;51.796;10.956;2023-03-01T00:11:06;16.70;45.20
67899;DHT22;54699;51.796;10.956;2023-03-01T00:13:34;16.70;45.30
67899;DHT22;54699;51.796;10.956;2023-03-01T00:16:02;16.70;45.30
67899;DHT22;54699;51.796;10.956;2023-03-01T00:18:29;16.70;45.30
67899;DHT22;54699;51.796;10.956;2023-03-01T00:20:56;16.70;45.30
67899;DHT22;54699;51.796;10.956;2023-03-01T00:23:24;16.70;45.20
67899;DHT22;54699;51.796;10.956;2023-03-01T00:25:51;16.70;45.40
67899;DHT22;54699;51.796;10.956;2023-03-01T00:28:19;16.70;45.30
67899;DHT22;54699;51.796;10.956;2023-03-01T00:30:46;16.70;45.30
67899;DHT22;54699;51.796;10.956;2023-03-01T00:33:13;16.70;45.30
67899;DHT22;54699;51.796;10.956;2023-03-01T00:35:40;16.70;45.20
67899;DHT22;54699;51.796;10.956;2023-03-01T00:38:07;16.70;45.30
67899;DHT22;54699;51.796;10.956;2023-03-01T00:40:35;16.70;45.30
67899;DHT22;54699;51.796;10.956;2023-03-01T00:43:02;16.70;45.30
67899;DHT22;54699;51.796;10.956;2023-03-01T00:45:30;16.70;45.30
67899;DHT22;54699;51.796;10.956;2023-03-01T00:47:57;16.60;45.30
67899;DHT22;54699;51.796;10.956;2023-03-01T00:50:24;16.60;45.20
67899;DHT22;54699;51.796;10.956;2023-03-01T00:52:52;16.60;45.30
67899;DHT22;54699;51.796;10.956;2023-03-01T00:55:19;16.60;45.20
67899;DHT22;54699;51.796;10.956;2023-03-01T00:57:48;16.60;45.30
67899;DHT22;54699;51.796;10.956;2023-03-01T01:00:15;16.60;45.30
67899;DHT22;54699;51.796;10.956;2023-03-01T01:02:42;16.60;45.30
67899;DHT22;54699;51.796;10.956;2023-03-01T01:05:09;16.60;45.30
67899;DHT22;54699;51.796;10.956;2023-03-01T01:07:36;16.60;45.30
67899;DHT22;54699;51.796;10.956;2023-03-01T01:10:03;16.60;45.30
67899;DHT22;54699;51.796;10.956;2023-03-01T01:12:30;16.60;45.20
67899;DHT22;54699;51.796;10.956;2023-03-01T01:14:59;16.60;45.30
67899;DHT22;54699;51.796;10.956;2023-03-01T01:17:26;16.60;45.30
67899;DHT22;54699;51.796;10.956;2023-03-01T01:19:53;16.60;45.30
67899;DHT22;54699;51.796;10.956;2023-03-01T01:22:19;16.60;45.30
67899;DHT22;54699;51.796;10.956;2023-03-01T01:24:46;16.60;45.30
67899;DHT22;54699;51.796;10.956;2023-03-01T01:27:13;16.60;45.30
67899;DHT22;54699;51.796;10.956;2023-03-01T01:29:40;16.50;45.30
67899;DHT22;54699;51.796;10.956;2023-03-01T01:32:09;16.50;45.20
67899;DHT22;54699;51.796;10.956;2023-03-01T01:34:36;16.50;45.20
67899;DHT22;54699;51.796;10.956;2023-03-01T01:37:03;16.50;45.30
67899;DHT22;54699;51.796;10.956;2023-03-01T01:39:33;16.50;45.30
67899;DHT22;54699;51.796;10.956;2023-03-01T01:41:59;16.50;45.30
67899;DHT22;54699;51.796;10.956;2023-03-01T01:44:27;16.50;45.30
67899;DHT22;54699;51.796;10.956;2023-03-01T01:46:56;16.50;45.30
67899;DHT22;54699;51.796;10.956;2023-03-01T01:49:29;16.50;45.30
67899;DHT22;54699;51.796;10.956;2023-03-01T01:52:07;16.50;45.30
67899;DHT22;54699;51.796;10.956;2023-03-01T01:54:39;16.50;45.30
67899;DHT22;54699;51.796;10.956;2023-03-01T01:57:12;16.50;45.30
67899;DHT22;54699;51.796;10.956;2023-03-01T01:59:43;16.50;45.30
67899;DHT22;54699;51.796;10.956;2023-03-01T02:02:14;16.50;45.30
67899;DHT22;54699;51.796;10.956;2023-03-01T02:04:43;16.50;45.30
67899;DHT22;54699;51.796;10.956;2023-03-01T02:07:11;16.50;45.30
67899;DHT22;54699;51.796;10.956;2023-03-01T02:09:41;16.50;45.30
67899;DHT22;54699;51.796;10.956;2023-03-01T02:12:11;16.40;45.20
67899;DHT22;54699;51.796;10.956;2023-03-01T02:14:39;16.40;45.20
67899;DHT22;54699;51.796;10.956;2023-03-01T02:17:06;16.50;45.30
67899;DHT22;54699;51.796;10.956;2023-03-01T02:19:37;16.40;45.20
67899;DHT22;54699;51.796;10.956;2023-03-01T02:22:15;16.40;45.30
67899;DHT22;54699;51.796;10.956;2023-03-01T02:24:50;16.40;45.20
67899;DHT22;54699;51.796;10.956;2023-03-01T02:27:28;16.40;45.20
67899;DHT22;54699;51.796;10.956;2023-03-01T02:30:04;16.40;45.20
67899;DHT22;54699;51.796;10.956;2023-03-01T02:32:33;16.40;45.20
67899;DHT22;54699;51.796;10.956;2023-03-01T02:34:59;16.40;45.30
67899;DHT22;54699;51.796;10.956;2023-03-01T02:37:26;16.40;45.20
67899;DHT22;54699;51.796;10.956;2023-03-01T02:39:55;16.40;45.30
67899;DHT22;54699;51.796;10.956;2023-03-01T02:42:26;16.40;45.30
67899;DHT22;54699;51.796;10.956;2023-03-01T02:44:58;16.40;45.30
67899;DHT22;54699;51.796;10.956;2023-03-01T02:47:26;16.40;45.30
67899;DHT22;54699;51.796;10.956;2023-03-01T02:49:53;16.40;45.30
67899;DHT22;54699;51.796;10.956;2023-03-01T02:52:37;16.40;45.30
67899;DHT22;54699;51.796;10.956;2023-03-01T02:55:13;16.40;45.30
67899;DHT22;54699;51.796;10.956;2023-03-01T02:57:44;16.40;45.30
67899;DHT22;54699;51.796;10.956;2023-03-01T03:00:16;16.40;45.30
67899;DHT22;54699;51.796;10.956;2023-03-01T03:02:46;16.30;45.30
67899;DHT22;54699;51.796;10.956;2023-03-01T03:05:16;16.30;45.20
67899;DHT22;54699;51.796;10.956;2023-03-01T03:07:44;16.30;45.20
67899;DHT22;54699;51.796;10.956;2023-03-01T03:10:13;16.30;45.20
67899;DHT22;54699;51.796;10.956;2023-03-01T03:12:42;16.30;45.20
67899;DHT22;54699;51.796;10.956;2023-03-01T03:15:09;16.30;45.30
67899;DHT22;54699;51.796;10.956;2023-03-01T03:17:38;16.30;45.30
67899;DHT22;54699;51.796;10.956;2023-03-01T03:20:09;16.30;45.20
67899;DHT22;54699;51.796;10.956;2023-03-01T03:22:38;16.30;45.30
67899;DHT22;54699;51.796;10.956;2023-03-01T03:25:06;16.30;45.30
67899;DHT22;54699;51.796;10.956;2023-03-01T03:27:35;16.30;45.30
67899;DHT22;54699;51.796;10.956;2023-03-01T03:30:03;16.30;45.30
67899;DHT22;54699;51.796;10.956;2023-03-01T03:32:34;16.30;45.30
67899;DHT22;54699;51.796;10.956;2023-03-01T03:35:01;16.30;45.30
67899;DHT22;54699;51.796;10.956;2023-03-01T03:37:35;16.30;45.30
67899;DHT22;54699;51.796;10.956;2023-03-01T03:40:20;16.30;45.30
67899;DHT22;54699;51.796;10.956;2023-03-01T03:42:47;16.30;45.30
67899;DHT22;54699;51.796;10.956;2023-03-01T03:45:14;16.30;45.30
67899;DHT22;54699;51.796;10.956;2023-03-01T03:47:41;16.30;45.20
67899;DHT22;54699;51.796;10.956;2023-03-01T03:50:09;16.20;45.30
67899;DHT22;54699;51.796;10.956;2023-03-01T03:52:38;16.20;45.10
67899;DHT22;54699;51.796;10.956;2023-03-01T03:55:05;16.20;46.20
67899;DHT22;54699;51.796;10.956;2023-03-01T03:57:36;16.30;45.20
67899;DHT22;54699;51.796;10.956;2023-03-01T04:00:04;16.20;45.20
67899;DHT22;54699;51.796;10.956;2023-03-01T04:02:38;16.20;45.30
67899;DHT22;54699;51.796;10.956;2023-03-01T04:05:05;16.20;45.20
67899;DHT22;54699;51.796;10.956;2023-03-01T04:07:33;16.20;45.20
67899;DHT22;54699;51.796;10.956;2023-03-01T04:10:01;16.20;45.10
67899;DHT22;54699;51.796;10.956;2023-03-01T04:12:28;16.20;45.10
67899;DHT22;54699;51.796;10.956;2023-03-01T04:14:55;16.20;45.10
67899;DHT22;54699;51.796;10.956;2023-03-01T04:17:22;16.20;45.10
67899;DHT22;54699;51.796;10.956;2023-03-01T04:19:48;16.20;45.00
67899;DHT22;54699;51.796;10.956;2023-03-01T04:22:15;16.20;45.00
67899;DHT22;54699;51.796;10.956;2023-03-01T04:24:43;16.20;45.00
67899;DHT22;54699;51.796;10.956;2023-03-01T04:27:12;16.20;45.10
67899;DHT22;54699;51.796;10.956;2023-03-01T04:29:38;16.20;45.10
67899;DHT22;54699;51.796;10.956;2023-03-01T04:32:05;16.20;45.10
67899;DHT22;54699;51.796;10.956;2023-03-01T04:34:32;16.20;45.00
67899;DHT22;54699;51.796;10.956;2023-03-01T04:36:58;16.20;45.10
67899;DHT22;54699;51.796;10.956;2023-03-01T04:39:25;16.20;45.10
67899;DHT22;54699;51.796;10.956;2023-03-01T04:41:52;16.20;45.10
67899;DHT22;54699;51.796;10.956;2023-03-01T04:44:20;16.10;45.00
67899;DHT22;54699;51.796;10.956;2023-03-01T04:46:48;16.10;45.20
67899;DHT22;54699;51.796;10.956;2023-03-01T04:49:15;16.10;45.00
67899;DHT22;54699;51.796;10.956;2023-03-01T04:51:42;16.10;45.10
67899;DHT22;54699;51.796;10.956;2023-03-01T04:54:09;16.10;45.40
67899;DHT22;54699;51.796;10.956;2023-03-01T04:56:36;16.10;45.00
67899;DHT22;54699;51.796;10.956;2023-03-01T04:59:02;16.10;45.00
67899;DHT22;54699;51.796;10.956;2023-03-01T05:01:32;16.10;45.00
67899;DHT22;54699;51.796;10.956;2023-03-01T05:04:00;16.10;45.00
67899;DHT22;54699;51.796;10.956;2023-03-01T05:06:28;16.10;45.00
67899;DHT22;54699;51.796;10.956;2023-03-01T05:08:55;16.10;45.00
67899;DHT22;54699;51.796;10.956;2023-03-01T05:11:22;16.10;45.00
67899;DHT22;54699;51.796;10.956;2023-03-01T05:13:49;16.10;45.00
67899;DHT22;54699;51.796;10.956;2023-03-01T05:16:20;16.10;45.00
67899;DHT22;54699;51.796;10.956;2023-03-01T05:18:48;16.10;45.00
67899;DHT22;54699;51.796;10.956;2023-03-01T05:21:16;16.10;45.10
67899;DHT22;54699;51.796;10.956;2023-03-01T05:23:43;16.10;45.00
67899;DHT22;54699;51.796;10.956;2023-03-01T05:26:12;16.10;44.90
67899;DHT22;54699;51.796;10.956;2023-03-01T05:28:39;16.10;45.00
67899;DHT22;54699;51.796;10.956;2023-03-01T05:31:06;16.10;45.00
67899;DHT22;54699;51.796;10.956;2023-03-01T05:33:35;16.10;45.10
67899;DHT22;54699;51.796;10.956;2023-03-01T05:36:04;16.10;44.90
67899;DHT22;54699;51.796;10.956;2023-03-01T05:38:32;16.10;44.80
67899;DHT22;54699;51.796;10.956;2023-03-01T05:40:59;16.10;44.80
67899;DHT22;54699;51.796;10.956;2023-03-01T05:43:29;16.10;44.80
67899;DHT22;54699;51.796;10.956;2023-03-01T05:45:57;16.00;44.60
67899;DHT22;54699;51.796;10.956;2023-03-01T05:48:25;16.00;44.00
67899;DHT22;54699;51.796;10.956;2023-03-01T05:50:58;16.00;45.00
67899;DHT22;54699;51.796;10.956;2023-03-01T05:53:28;16.00;43.10
67899;DHT22;54699;51.796;10.956;2023-03-01T05:55:55;16.00;44.60
67899;DHT22;54699;51.796;10.956;2023-03-01T05:58:25;16.00;44.30
67899;DHT22;54699;51.796;10.956;2023-03-01T06:00:53;16.00;43.50
67899;DHT22;54699;51.796;10.956;2023-03-01T06:03:21;15.90;42.90
67899;DHT22;54699;51.796;10.956;2023-03-01T06:05:48;15.80;43.00
67899;DHT22;54699;51.796;10.956;2023-03-01T06:08:15;15.60;43.70
67899;DHT22;54699;51.796;10.956;2023-03-01T06:10:44;15.80;43.80
67899;DHT22;54699;51.796;10.956;2023-03-01T06:13:13;15.80;42.50
67899;DHT22;54699;51.796;10.956;2023-03-01T06:15:40;15.80;41.10
67899;DHT22;54699;51.796;10.956;2023-03-01T06:18:08;15.90;41.30
67899;DHT22;54699;51.796;10.956;2023-03-01T06:20:35;15.90;42.90
67899;DHT22;54699;51.796;10.956;2023-03-01T06:23:04;15.80;44.10
67899;DHT22;54699;51.796;10.956;2023-03-01T06:25:34;15.90;43.80
67899;DHT22;54699;51.796;10.956;2023-03-01T06:28:02;16.00;44.00
67899;DHT22;54699;51.796;10.956;2023-03-01T06:30:31;16.00;44.00
67899;DHT22;54699;51.796;10.956;2023-03-01T06:32:58;16.00;43.90
67899;DHT22;54699;51.796;10.956;2023-03-01T06:35:29;16.00;43.70
67899;DHT22;54699;51.796;10.956;2023-03-01T06:37:57;16.00;42.90
67899;DHT22;54699;51.796;10.956;2023-03-01T06:40:25;15.80;42.90
67899;DHT22;54699;51.796;10.956;2023-03-01T06:42:52;15.90;43.90
67899;DHT22;54699;51.796;10.956;2023-03-01T06:45:23;16.00;43.90
67899;DHT22;54699;51.796;10.956;2023-03-01T06:47:50;16.00;43.70
67899;DHT22;54699;51.796;10.956;2023-03-01T06:50:21;16.00;43.70
67899;DHT22;54699;51.796;10.956;2023-03-01T06:52:54;16.00;43.00
67899;DHT22;54699;51.796;10.956;2023-03-01T06:55:22;15.90;42.50
67899;DHT22;54699;51.796;10.956;2023-03-01T06:57:55;16.00;42.20
67899;DHT22;54699;51.796;10.956;2023-03-01T07:00:26;16.00;42.20
67899;DHT22;54699;51.796;10.956;2023-03-01T07:02:58;15.90;43.30
67899;DHT22;54699;51.796;10.956;2023-03-01T07:05:27;15.90;42.70
67899;DHT22;54699;51.796;10.956;2023-03-01T07:08:05;15.90;41.50
67899;DHT22;54699;51.796;10.956;2023-03-01T07:10:32;15.90;41.10
67899;DHT22;54699;51.796;10.956;2023-03-01T07:12:59;15.90;40.10
67899;DHT22;54699;51.796;10.956;2023-03-01T07:15:31;16.00;43.10
67899;DHT22;54699;51.796;10.956;2023-03-01T07:17:58;16.00;42.90
67899;DHT22;54699;51.796;10.956;2023-03-01T07:20:26;16.10;42.90
67899;DHT22;54699;51.796;10.956;2023-03-01T07:22:53;16.10;42.90
67899;DHT22;54699;51.796;10.956;2023-03-01T07:25:21;16.10;42.90
67899;DHT22;54699;51.796;10.956;2023-03-01T07:27:49;16.10;42.90
67899;DHT22;54699;51.796;10.956;2023-03-01T07:30:17;16.20;42.80
67899;DHT22;54699;51.796;10.956;2023-03-01T07:32:46;16.20;42.90
67899;DHT22;54699;51.796;10.956;2023-03-01T07:35:13;16.10;42.90
67899;DHT22;54699;51.796;10.956;2023-03-01T07:37:43;16.10;42.80
67899;DHT22;54699;51.796;10.956;2023-03-01T07:40:11;16.10;42.90
67899;DHT22;54699;51.796;10.956;2023-03-01T07:42:38;16.10;42.90
67899;DHT22;54699;51.796;10.956;2023-03-01T07:45:08;16.20;43.00
67899;DHT22;54699;51.796;10.956;2023-03-01T07:47:36;16.20;43.00
67899;DHT22;54699;51.796;10.956;2023-03-01T07:50:08;16.20;42.90
67899;DHT22;54699;51.796;10.956;2023-03-01T07:52:36;16.20;42.90
67899;DHT22;54699;51.796;10.956;2023-03-01T07:55:04;16.20;42.20
67899;DHT22;54699;51.796;10.956;2023-03-01T07:57:32;16.20;42.90
67899;DHT22;54699;51.796;10.956;2023-03-01T08:00:00;16.20;43.00
67899;DHT22;54699;51.796;10.956;2023-03-01T08:02:27;16.20;42.90
67899;DHT22;54699;51.796;10.956;2023-03-01T08:04:55;16.30;43.00
67899;DHT22;54699;51.796;10.956;2023-03-01T08:07:25;16.20;43.90
67899;DHT22;54699;51.796;10.956;2023-03-01T08:09:52;16.30;43.00
67899;DHT22;54699;51.796;10.956;2023-03-01T08:12:19;16.20;42.90
67899;DHT22;54699;51.796;10.956;2023-03-01T08:14:46;16.20;42.90
67899;DHT22;54699;51.796;10.956;2023-03-01T08:17:15;16.20;42.90
67899;DHT22;54699;51.796;10.956;2023-03-01T08:19:44;16.20;43.00
67899;DHT22;54699;51.796;10.956;2023-03-01T08:22:11;16.20;43.30
67899;DHT22;54699;51.796;10.956;2023-03-01T08:24:39;16.30;43.30
67899;DHT22;54699;51.796;10.956;2023-03-01T08:27:06;16.30;43.40
67899;DHT22;54699;51.796;10.956;2023-03-01T08:29:34;16.30;43.40
67899;DHT22;54699;51.796;10.956;2023-03-01T08:32:01;16.30;43.50
67899;DHT22;54699;51.796;10.956;2023-03-01T08:34:28;16.30;44.50
67899;DHT22;54699;51.796;10.956;2023-03-01T08:36:56;16.30;43.50
67899;DHT22;54699;51.796;10.956;2023-03-01T08:39:23;16.20;43.90
67899;DHT22;54699;51.796;10.956;2023-03-01T08:41:52;16.20;43.30
67899;DHT22;54699;51.796;10.956;2023-03-01T08:44:21;16.30;43.40
67899;DHT22;54699;51.796;10.956;2023-03-01T08:46:54;16.30;43.30
67899;DHT22;54699;51.796;10.956;2023-03-01T08:49:35;16.40;44.30
67899;DHT22;54699;51.796;10.956;2023-03-01T08:52:06;16.50;43.20
67899;DHT22;54699;51.796;10.956;2023-03-01T08:54:37;16.60;43.60
67899;DHT22;54699;51.796;10.956;2023-03-01T08:57:27;16.70;43.50
67899;DHT22;54699;51.796;10.956;2023-03-01T09:00:23;16.80;43.80
67899;DHT22;54699;51.796;10.956;2023-03-01T09:03:01;16.90;43.20
67899;DHT22;54699;51.796;10.956;2023-03-01T09:05:31;16.90;43.30
67899;DHT22;54699;51.796;10.956;2023-03-01T09:07:58;16.80;41.70
67899;DHT22;54699;51.796;10.956;2023-03-01T09:10:25;16.80;40.80
67899;DHT22;54699;51.796;10.956;2023-03-01T09:12:53;16.80;42.40
67899;DHT22;54699;51.796;10.956;2023-03-01T09:15:20;16.80;43.60
67899;DHT22;54699;51.796;10.956;2023-03-01T09:17:49;16.80;43.30
67899;DHT22;54699;51.796;10.956;2023-03-01T09:20:17;16.80;44.20
67899;DHT22;54699;51.796;10.956;2023-03-01T09:22:44;16.80;44.30
67899;DHT22;54699;51.796;10.956;2023-03-01T09:25:11;16.80;44.00
67899;DHT22;54699;51.796;10.956;2023-03-01T09:27:38;16.80;44.10
67899;DHT22;54699;51.796;10.956;2023-03-01T09:30:07;16.80;44.00
67899;DHT22;54699;51.796;10.956;2023-03-01T09:32:34;16.80;43.30
67899;DHT22;54699;51.796;10.956;2023-03-01T09:35:01;16.80;42.80
67899;DHT22;54699;51.796;10.956;2023-03-01T09:37:31;16.90;42.70
67899;DHT22;54699;51.796;10.956;2023-03-01T09:39:59;16.90;43.10
67899;DHT22;54699;51.796;10.956;2023-03-01T09:42:27;16.90;42.60
67899;DHT22;54699;51.796;10.956;2023-03-01T09:44:57;16.90;43.20
67899;DHT22;54699;51.796;10.956;2023-03-01T09:47:30;17.00;42.90
67899;DHT22;54699;51.796;10.956;2023-03-01T09:50:04;17.00;43.10
67899;DHT22;54699;51.796;10.956;2023-03-01T09:52:38;17.00;42.80
67899;DHT22;54699;51.796;10.956;2023-03-01T09:55:09;17.10;40.00
67899;DHT22;54699;51.796;10.956;2023-03-01T09:57:41;17.10;41.50
67899;DHT22;54699;51.796;10.956;2023-03-01T10:00:17;17.20;37.60
67899;DHT22;54699;51.796;10.956;2023-03-01T10:02:59;17.20;39.50
67899;DHT22;54699;51.796;10.956;2023-03-01T10:05:38;17.20;39.10
67899;DHT22;54699;51.796;10.956;2023-03-01T10:08:31;17.30;38.10
67899;DHT22;54699;51.796;10.956;2023-03-01T10:11:14;17.40;37.50
67899;DHT22;54699;51.796;10.956;2023-03-01T10:13:47;17.30;38.00
67899;DHT22;54699;51.796;10.956;2023-03-01T10:16:26;17.40;38.40
67899;DHT22;54699;51.796;10.956;2023-03-01T10:19:02;17.40;38.80
67899;DHT22;54699;51.796;10.956;2023-03-01T10:21:31;17.40;39.90
67899;DHT22;54699;51.796;10.956;2023-03-01T10:24:08;17.50;40.40
67899;DHT22;54699;51.796;10.956;2023-03-01T10:26:44;17.40;41.10
67899;DHT22;54699;51.796;10.956;2023-03-01T10:29:17;17.50;41.50
67899;DHT22;54699;51.796;10.956;2023-03-01T10:31:51;17.50;40.80
67899;DHT22;54699;51.796;10.956;2023-03-01T10:34:27;17.50;40.80
67899;DHT22;54699;51.796;10.956;2023-03-01T10:37:01;17.50;40.70
67899;DHT22;54699;51.796;10.956;2023-03-01T10:42:37;17.60;39.60
67899;DHT22;54699;51.796;10.956;2023-03-01T10:45:27;17.70;40.70
67899;DHT22;54699;51.796;10.956;2023-03-01T10:48:05;17.80;39.90
67899;DHT22;54699;51.796;10.956;2023-03-01T10:50:42;17.80;40.30
67899;DHT22;54699;51.796;10.956;2023-03-01T10:53:20;18.00;40.30
67899;DHT22;54699;51.796;10.956;2023-03-01T10:56:09;18.00;40.50
67899;DHT22;54699;51.796;10.956;2023-03-01T11:02:14;18.10;40.80
67899;DHT22;54699;51.796;10.956;2023-03-01T11:05:00;18.20;41.00
67899;DHT22;54699;51.796;10.956;2023-03-01T11:07:48;18.30;41.20
67899;DHT22;54699;51.796;10.956;2023-03-01T11:10:17;18.40;41.40
67899;DHT22;54699;51.796;10.956;2023-03-01T11:12:46;18.40;40.80
67899;DHT22;54699;51.796;10.956;2023-03-01T11:15:23;18.40;40.80
67899;DHT22;54699;51.796;10.956;2023-03-01T11:17:52;18.40;38.30
67899;DHT22;54699;51.796;10.956;2023-03-01T11:20:25;18.40;38.00
67899;DHT22;54699;51.796;10.956;2023-03-01T11:22:58;18.40;37.40
67899;DHT22;54699;51.796;10.956;2023-03-01T11:25:32;18.40;38.70
67899;DHT22;54699;51.796;10.956;2023-03-01T11:28:02;18.40;36.50
67899;DHT22;54699;51.796;10.956;2023-03-01T11:30:31;18.40;38.70
67899;DHT22;54699;51.796;10.956;2023-03-01T11:33:04;18.40;38.50
67899;DHT22;54699;51.796;10.956;2023-03-01T11:35:42;18.40;38.70
67899;DHT22;54699;51.796;10.956;2023-03-01T11:38:21;18.40;38.10
67899;DHT22;54699;51.796;10.956;2023-03-01T11:40:51;18.40;38.30
67899;DHT22;54699;51.796;10.956;2023-03-01T11:43:28;18.40;40.00
67899;DHT22;54699;51.796;10.956;2023-03-01T11:49:12;18.50;40.00
67899;DHT22;54699;51.796;10.956;2023-03-01T11:52:02;18.50;40.70
67899;DHT22;54699;51.796;10.956;2023-03-01T11:54:43;18.50;39.60
67899;DHT22;54699;51.796;10.956;2023-03-01T11:57:20;18.50;40.70
67899;DHT22;54699;51.796;10.956;2023-03-01T12:02:58;18.50;40.30
67899;DHT22;54699;51.796;10.956;2023-03-01T12:05:55;18.50;39.80
67899;DHT22;54699;51.796;10.956;2023-03-01T12:08:51;18.50;39.70
67899;DHT22;54699;51.796;10.956;2023-03-01T12:11:47;18.50;39.30
67899;DHT22;54699;51.796;10.956;2023-03-01T12:14:30;18.60;39.20
67899;DHT22;54699;51.796;10.956;2023-03-01T12:17:09;18.60;39.60
67899;DHT22;54699;51.796;10.956;2023-03-01T12:19:52;18.60;39.60
67899;DHT22;54699;51.796;10.956;2023-03-01T12:22:44;18.60;40.00
67899;DHT22;54699;51.796;10.956;2023-03-01T12:25:21;18.60;40.40
67899;DHT22;54699;51.796;10.956;2023-03-01T12:27:59;18.70;39.70
67899;DHT22;54699;51.796;10.956;2023-03-01T12:30:48;18.70;40.20
67899;DHT22;54699;51.796;10.956;2023-03-01T12:33:30;18.70;40.50
67899;DHT22;54699;51.796;10.956;2023-03-01T12:36:14;18.70;40.90
67899;DHT22;54699;51.796;10.956;2023-03-01T12:39:04;18.70;40.30
67899;DHT22;54699;51.796;10.956;2023-03-01T12:41:43;18.80;41.10
67899;DHT22;54699;51.796;10.956;2023-03-01T12:47:18;18.70;40.90
67899;DHT22;54699;51.796;10.956;2023-03-01T12:49:54;18.80;41.00
67899;DHT22;54699;51.796;10.956;2023-03-01T12:52:24;18.80;41.00
67899;DHT22;54699;51.796;10.956;2023-03-01T12:55:00;18.90;39.50
67899;DHT22;54699;51.796;10.956;2023-03-01T12:57:29;18.90;38.10
67899;DHT22;54699;51.796;10.956;2023-03-01T13:00:09;18.90;38.10
67899;DHT22;54699;51.796;10.956;2023-03-01T13:02:53;19.00;37.80
67899;DHT22;54699;51.796;10.956;2023-03-01T13:05:27;19.00;38.50
67899;DHT22;54699;51.796;10.956;2023-03-01T13:08:05;19.00;39.20
67899;DHT22;54699;51.796;10.956;2023-03-01T13:10:40;19.10;40.50
67899;DHT22;54699;51.796;10.956;2023-03-01T13:13:14;19.10;40.80
67899;DHT22;54699;51.796;10.956;2023-03-01T13:15:48;19.10;40.80
67899;DHT22;54699;51.796;10.956;2023-03-01T13:18:29;19.10;40.90
67899;DHT22;54699;51.796;10.956;2023-03-01T13:20:58;19.00;40.80
67899;DHT22;54699;51.796;10.956;2023-03-01T13:23:27;19.10;41.00
67899;DHT22;54699;51.796;10.956;2023-03-01T13:26:00;19.10;40.90
67899;DHT22;54699;51.796;10.956;2023-03-01T13:28:40;19.10;41.00
67899;DHT22;54699;51.796;10.956;2023-03-01T13:37:35;19.20;41.40
67899;DHT22;54699;51.796;10.956;2023-03-01T13:46:07;19.20;41.60
67899;DHT22;54699;51.796;10.956;2023-03-01T13:48:36;19.20;41.50
67899;DHT22;54699;51.796;10.956;2023-03-01T13:51:07;19.20;41.60
67899;DHT22;54699;51.796;10.956;2023-03-01T13:53:39;19.20;41.60
67899;DHT22;54699;51.796;10.956;2023-03-01T13:56:09;19.30;41.60
67899;DHT22;54699;51.796;10.956;2023-03-01T13:58:50;19.20;41.40
67899;DHT22;54699;51.796;10.956;2023-03-01T14:01:26;19.30;41.60
67899;DHT22;54699;51.796;10.956;2023-03-01T14:03:55;19.30;39.10
67899;DHT22;54699;51.796;10.956;2023-03-01T14:06:23;19.20;36.50
67899;DHT22;54699;51.796;10.956;2023-03-01T14:09:00;19.30;35.70
67899;DHT22;54699;51.796;10.956;2023-03-01T14:14:36;19.30;36.80
67899;DHT22;54699;51.796;10.956;2023-03-01T14:17:12;19.10;35.60
67899;DHT22;54699;51.796;10.956;2023-03-01T14:19:55;19.00;37.10
67899;DHT22;54699;51.796;10.956;2023-03-01T14:22:26;18.90;36.60
67899;DHT22;54699;51.796;10.956;2023-03-01T14:24:57;18.80;36.90
67899;DHT22;54699;51.796;10.956;2023-03-01T14:27:28;18.80;38.30
67899;DHT22;54699;51.796;10.956;2023-03-01T14:30:00;18.80;37.40
67899;DHT22;54699;51.796;10.956;2023-03-01T14:32:30;18.70;37.60
67899;DHT22;54699;51.796;10.956;2023-03-01T14:34:58;18.80;36.60
67899;DHT22;54699;51.796;10.956;2023-03-01T14:37:27;18.70;36.90
67899;DHT22;54699;51.796;10.956;2023-03-01T14:39:57;18.80;36.00
67899;DHT22;54699;51.796;10.956;2023-03-01T14:42:26;18.80;36.20
67899;DHT22;54699;51.796;10.956;2023-03-01T14:44:55;18.70;37.80
67899;DHT22;54699;51.796;10.956;2023-03-01T14:47:25;18.70;35.90
67899;DHT22;54699;51.796;10.956;2023-03-01T14:49:57;18.80;34.90
67899;DHT22;54699;51.796;10.956;2023-03-01T14:52:31;18.90;35.30
67899;DHT22;54699;51.796;10.956;2023-03-01T14:55:04;19.00;35.20
67899;DHT22;54699;51.796;10.956;2023-03-01T14:57:43;19.00;35.10
67899;DHT22;54699;51.796;10.956;2023-03-01T15:00:16;19.10;34.50
67899;DHT22;54699;51.796;10.956;2023-03-01T15:02:47;19.10;34.90
67899;DHT22;54699;51.796;10.956;2023-03-01T15:05:18;19.20;34.90
67899;DHT22;54699;51.796;10.956;2023-03-01T15:07:56;19.10;35.20
67899;DHT22;54699;51.796;10.956;2023-03-01T15:10:26;19.20;35.70
67899;DHT22;54699;51.796;10.956;2023-03-01T15:12:55;19.20;37.30
67899;DHT22;54699;51.796;10.956;2023-03-01T15:15:36;19.20;36.50
67899;DHT22;54699;51.796;10.956;2023-03-01T15:18:15;19.20;38.30
67899;DHT22;54699;51.796;10.956;2023-03-01T15:20:45;19.10;38.60
67899;DHT22;54699;51.796;10.956;2023-03-01T15:23:18;19.00;38.20
67899;DHT22;54699;51.796;10.956;2023-03-01T15:25:50;18.90;36.30
67899;DHT22;54699;51.796;10.956;2023-03-01T15:28:22;18.80;36.50
67899;DHT22;54699;51.796;10.956;2023-03-01T15:30:52;18.80;37.10
67899;DHT22;54699;51.796;10.956;2023-03-01T15:33:29;18.70;37.50
67899;DHT22;54699;51.796;10.956;2023-03-01T15:35:58;18.50;36.30
67899;DHT22;54699;51.796;10.956;2023-03-01T15:38:30;18.50;37.70
67899;DHT22;54699;51.796;10.956;2023-03-01T15:41:05;18.40;38.30
67899;DHT22;54699;51.796;10.956;2023-03-01T15:43:51;18.40;37.70
67899;DHT22;54699;51.796;10.956;2023-03-01T15:46:25;18.50;35.80
67899;DHT22;54699;51.796;10.956;2023-03-01T15:48:55;18.40;35.50
67899;DHT22;54699;51.796;10.956;2023-03-01T15:51:28;18.20;33.40
67899;DHT22;54699;51.796;10.956;2023-03-01T15:53:59;18.20;33.40
67899;DHT22;54699;51.796;10.956;2023-03-01T15:56:29;18.20;34.40
67899;DHT22;54699;51.796;10.956;2023-03-01T15:58:57;18.20;35.00
67899;DHT22;54699;51.796;10.956;2023-03-01T16:01:25;18.20;34.60
67899;DHT22;54699;51.796;10.956;2023-03-01T16:03:53;18.20;35.30
67899;DHT22;54699;51.796;10.956;2023-03-01T16:06:21;18.20;35.60
67899;DHT22;54699;51.796;10.956;2023-03-01T16:08:48;18.20;35.00
67899;DHT22;54699;51.796;10.956;2023-03-01T16:11:16;18.20;35.10